Lobo

Go HERE for most recent data if this page is not up to date.

Jump to table bottom
Date/Time Temp deg F RH % 24 Hr Snow (in) Snow Depth (in) H2O (in)
06/02 03:00 39.8 98 0.1 14.7 0.00
06/02 02:00 40.6 95 0.1 15.0 0.00
06/02 01:00 41.2 91 0.2 15.3 0.00
06/02 00:00 41.5 86 0.2 15.3 0.00
06/01 23:00 40.4 92 0.2 15.4 0.01
06/01 22:00 40.8 93 0.1 15.2 0.12
06/01 21:00 43.9 85 0.0 15.2 0.00
06/01 20:00 48.1 72 0.0 15.2 0.00
06/01 19:00 50.5 59 0.1 15.3 0.00
06/01 18:00 54.5 38 0.0 15.1 0.00
06/01 17:00 56.5 40 -0.0 15.0 0.00
06/01 16:00 60.3 33 -0.2 15.0 0.00
06/01 15:00 58.7 38 -0.1 15.7 0.00
06/01 14:00 58.5 41 -0.0 16.2 0.00
06/01 13:00 58.6 42 -0.2 16.5 0.00
06/01 12:00 55.7 37 0.0 17.7 0.00
06/01 11:00 53.8 39 0.0 18.0 0.00
06/01 10:00 50.7 52 0.1 18.5 0.00
06/01 09:00 49.8 37 0.3 18.4 0.00
06/01 08:00 47.6 44 0.3 18.8 0.00
06/01 07:00 45.5 42 0.3 18.8 0.00
06/01 06:00 44.7 48 0.2 18.6 0.00
06/01 05:00 46.7 48 0.2 18.6 0.00
06/01 04:00 47.5 41 0.3 18.8 0.00
06/01 03:00 48.4 37 0.2 18.7 0.00
06/01 02:00 49.1 35 0.2 18.6 0.00
06/01 01:00 49.9 35 0.1 18.8 0.00
06/01 00:00 50.2 36 0.2 18.8 0.00
.